Terminal Aerodrome Forecast
Issued by NWS

Home | Current Version | Previous Version | Graphics & Text | Print | Product List | Glossary On
Versions: 1 2 3 4 5 6 7 8 9 10 11 12 13 14 15 16 17 18 19 20 21 22 23 24 25 26 27
000
FTUS43 KLOT 162332
TAFDPA
TAF
KDPA 162332Z 1700/1724 10006KT 3SM -SHRA BR OVC005
     FM170100 10008KT 1SM SHRA BR OVC003
      TEMPO 1702/1704 10012KT 1/2SM TSRA FG OVC003CB
     FM170600 VRB03KT 1/2SM -RADZ FG OVC003
     FM171300 24010KT 2SM -DZ BR OVC003
     FM172000 27008KT 4SM BR VCSH OVC007=

USA.gov is the U.S. government's official web portal to all federal, state and local government web resources and services.